This is the latest recevied weather packets stored in our database for station/object N5XJB. If no packets are shown the sender has not sent any weather packets the latest 1 day(s).
| Time | Temp. | Humidity | Pressure | Rain* | Wind** | Luminosity | Snow |
|---|---|---|---|---|---|---|---|
| 1778022467 | 28.33° C | 76% | 1007.7 hPa | 0 mm | 0.89 m/s, 154° | 130 W/m² | - |
| 1778022163 | 28.33° C | 75% | 1007.7 hPa | 0 mm | 0.89 m/s, 31° | 161 W/m² | - |
| 1778021860 | 28.33° C | 75% | 1007.7 hPa | 0 mm | 1.34 m/s, 95° | 140 W/m² | - |
| 1778021557 | 28.33° C | 75% | 1007.7 hPa | 0 mm | 1.34 m/s, 151° | 92 W/m² | - |
| 1778021252 | 28.33° C | 75% | 1007.7 hPa | 0 mm | 0.89 m/s, 112° | 114 W/m² | - |
| 1778020950 | 28.33° C | 75% | 1007.3 hPa | 0 mm | 0.89 m/s, 307° | 123 W/m² | - |
| 1778020647 | 28.89° C | 74% | 1007.7 hPa | 0 mm | 0.45 m/s, 108° | 82 W/m² | - |
| 1778020343 | 28.89° C | 73% | 1007.7 hPa | 0 mm | 0.89 m/s, 274° | 202 W/m² | - |
| 1778020039 | 28.89° C | 73% | 1007.7 hPa | 0 mm | 0 m/s | 209 W/m² | - |
| 1778019735 | 28.89° C | 73% | 1007.7 hPa | 0 mm | 1.34 m/s, 73° | 207 W/m² | - |
| 1778019433 | 28.89° C | 74% | 1008 hPa | 0 mm | 1.34 m/s, 186° | 226 W/m² | - |
| 1778019129 | 28.89° C | 74% | 1008 hPa | 0 mm | 0.89 m/s, 57° | 184 W/m² | - |
| 1778018827 | 28.89° C | 73% | 1007.7 hPa | 0 mm | 1.79 m/s, 126° | 159 W/m² | - |
| 1778018524 | 29.44° C | 73% | 1007.7 hPa | 0 mm | 0 m/s | 161 W/m² | - |
| 1778018222 | 29.44° C | 72% | 1008 hPa | 0 mm | 0.89 m/s, 93° | 205 W/m² | - |
| 1778017920 | 28.89° C | 73% | 1008 hPa | 0 mm | 1.34 m/s, 66° | 302 W/m² | - |
| 1778017617 | 28.89° C | 74% | 1008.3 hPa | 0 mm | 1.34 m/s, 120° | 242 W/m² | - |
| 1778017314 | 28.89° C | 75% | 1008 hPa | 0 mm | 1.34 m/s, 158° | 264 W/m² | - |
| 1778017012 | 28.89° C | 74% | 1008.3 hPa | 0 mm | 0.45 m/s, 318° | 246 W/m² | - |
| 1778016708 | 29.44° C | 73% | 1008.3 hPa | 0 mm | 0.89 m/s, 186° | 157 W/m² | - |
| 1778016404 | 29.44° C | 73% | 1008.3 hPa | 0 mm | 0.89 m/s, 160° | 273 W/m² | - |
| 1778016102 | 29.44° C | 73% | 1008.3 hPa | 0 mm | 0.89 m/s, 206° | 276 W/m² | - |
| 1778015799 | 30° C | 72% | 1008.3 hPa | 0 mm | 0.89 m/s, 112° | 260 W/m² | - |
| 1778015496 | 29.44° C | 73% | 1008.3 hPa | 0 mm | 0.89 m/s, 174° | 365 W/m² | - |
| 1778015193 | 29.44° C | 73% | 1008.7 hPa | 0 mm | 0.89 m/s, 94° | 354 W/m² | - |
* Rain latest hour (hover to see other rain measurements)
** Current wind speed in m/s (hover to see current wind gust speed)